San José, CA

10:30 PST le 30 janvier 2015 (GMT -0800)
Moffett Federal Air Field | Change Station
CLOSE
Current Station
Aéroport
Location: Moffett NAS,
Altitude: 39 ft
Stations météo à proximité
Avis météorologiques actifs: Dense Fog Advisory Préavis actif: Record Report

Alt. 39 ft 37.41 °N, 122.05 °W | Updated 34 minutes ago

Brouillard
Brouillard
53 ° F
Paraît 53 ° F
N
0
Vent Variable Vent de Nord

Aujourd'hui
Haut(e) -- | Bas -- ° F
--% Risque de précip.
Hier
Haut(e) -- | Bas -- ° F
Precip. -- pouce
7:12 AM 5:29 PM
Lune gibbeuse croissante, 84% visible
Pression 30.05 pouce
Visibilité 6.0 Miles terrestres
Nuages Couvert 700 ft
Point de rosée 50 ° F
Humidité 89%
Précipitations 0.00 pouce
Profondeur de la couche neigeuse Non disponible.
UV 1 sur 12
Pollen 5.30 sur 12
Qualité de l'air Non disponible.
Flu Activity Non disponible.
METAR KNUQ 301756Z 00000KT 6SM BR OVC007 12/10 A3005 RMK AO2 SLP176 T01170100 10117 20089 51002

More Conditions Fewer Conditions

Pression 30.05 pouce
Visibilité 6.0 Miles terrestres
Nuages Couvert 700 ft
Point de rosée 50 ° F
Humidité 89%
Précipitations 0.00 pouce
Profondeur de la couche neigeuse Non disponible.
UV 1 sur 12
Pollen 5.30 sur 12
Qualité de l'air Non disponible.
Flu Activity Non disponible.
METAR KNUQ 301756Z 00000KT 6SM BR OVC007 12/10 A3005 RMK AO2 SLP176 T01170100 10117 20089 51002

More Conditions Fewer Conditions

10-Day Weather Forecast

Almanac

Astronomie

Jan. 30, 2015 Lever Coucher
Temps réel
Crépuscule civil
Crépuscule nautique
Crépuscule astronomique
Lune
Durée de lumière visible
Longueur du jour
Tomorrow will be .
, % of the Moon is Illuminated

Extrêmes aujourd'hui

State Highs State Lows

Community

WunderPhotos

Upload Photos

1,791,857 Photos téléchargées !

WunderBlogs® & News

Nearby

Qualité de l'air

  Qualité de l'air Indice de la qualité de l'air Polluant
Not available.

Épaisseur de neige

Station Depth Altitude

Activité sismique

Ville Distance Mag. Time & Date
Minimum magnitude displayed is 2.5.

Températures des eaux côtières

Lieu Température

Stations météo à proximité